Time;durP1;ratioP1;P1;durP2;ratioP2;P2;SDS_P1;SDS_P2;PMS_P1;PMS_P2;Temp;Humidity;BMP_temperature;BMP_pressure;BME280_temperature;BME280_humidity;BME280_pressure;Samples;Min_cycle;Max_cycle;Signal;HPM_P1;HPM_P2
2023/06/28 00:01:41;;;;;;;5.80;3.03;;;15.50;99.90;;;;;;4938223;29;20218;-80
2023/06/28 00:04:09;;;;;;;6.30;3.40;;;15.50;99.90;;;;;;4938292;29;20212;-80
2023/06/28 00:06:37;;;;;;;5.93;3.10;;;15.40;99.90;;;;;;4938546;29;20216;-80
2023/06/28 00:09:06;;;;;;;7.17;3.47;;;15.40;99.90;;;;;;4937881;29;20204;-81
2023/06/28 00:11:34;;;;;;;6.63;3.53;;;15.30;99.90;;;;;;4938381;29;20208;-80
2023/06/28 00:14:03;;;;;;;4.20;3.10;;;15.40;99.90;;;;;;4938110;29;20223;-79
2023/06/28 00:16:31;;;;;;;6.83;3.43;;;15.40;99.90;;;;;;4937953;29;20266;-80
2023/06/28 00:19:00;;;;;;;6.87;3.47;;;15.30;99.90;;;;;;4937947;29;20240;-79
2023/06/28 00:21:28;;;;;;;5.97;3.77;;;15.40;99.90;;;;;;4937909;29;20640;-80
2023/06/28 00:23:57;;;;;;;6.23;3.73;;;15.30;99.90;;;;;;4937608;29;20263;-80
2023/06/28 00:26:26;;;;;;;5.50;3.60;;;15.30;99.90;;;;;;4937460;29;20275;-80
2023/06/28 00:28:54;;;;;;;6.03;3.43;;;15.20;99.90;;;;;;4937624;29;20208;-80
2023/06/28 00:31:23;;;;;;;6.10;3.30;;;15.20;99.90;;;;;;4937793;29;20269;-80
2023/06/28 00:33:52;;;;;;;6.60;3.77;;;15.20;99.90;;;;;;4937264;29;20219;-80
2023/06/28 00:36:20;;;;;;;5.07;3.60;;;15.20;99.90;;;;;;4937222;29;20726;-77
2023/06/28 00:38:48;;;;;;;7.37;3.80;;;15.10;99.90;;;;;;4938849;29;20256;-80
2023/06/28 00:41:16;;;;;;;5.30;3.77;;;14.90;99.90;;;;;;4938237;29;20212;-80
2023/06/28 00:43:44;;;;;;;6.57;3.70;;;14.80;99.90;;;;;;4938226;29;20905;-81
2023/06/28 00:46:12;;;;;;;6.87;4.17;;;14.70;99.90;;;;;;4939847;29;20299;-80
2023/06/28 00:48:41;;;;;;;7.23;4.53;;;14.70;99.90;;;;;;4945815;28;20270;-80
2023/06/28 00:51:11;;;;;;;5.97;4.20;;;14.70;99.90;;;;;;4977878;28;20231;-81
2023/06/28 00:53:39;;;;;;;6.57;4.27;;;14.60;99.90;;;;;;4944297;28;20303;-80
2023/06/28 00:56:07;;;;;;;7.33;4.50;;;14.60;99.90;;;;;;4936996;29;20208;-80
2023/06/28 00:58:36;;;;;;;6.77;4.80;;;14.60;99.90;;;;;;4937229;29;20228;-81
2023/06/28 01:01:04;;;;;;;7.17;4.50;;;14.50;99.90;;;;;;4937060;29;20218;-79
2023/06/28 01:03:32;;;;;;;6.30;5.20;;;14.50;99.90;;;;;;4936749;29;20212;-81
2023/06/28 01:06:02;;;;;;;4.87;4.37;;;14.50;99.90;;;;;;4937015;29;20212;-81
2023/06/28 01:08:30;;;;;;;5.63;5.00;;;14.50;99.90;;;;;;4936966;29;20243;-79
2023/06/28 01:10:59;;;;;;;11.67;5.20;;;14.40;99.90;;;;;;4936155;29;20633;-78
2023/06/28 01:13:27;;;;;;;7.37;5.20;;;14.40;99.90;;;;;;4942269;28;20254;-81
2023/06/28 01:15:55;;;;;;;7.87;5.07;;;14.40;99.90;;;;;;4942724;28;20259;-79
2023/06/28 01:18:23;;;;;;;7.20;5.07;;;14.30;99.90;;;;;;4937187;29;20251;-76
2023/06/28 01:20:54;;;;;;;6.40;5.07;;;14.30;99.90;;;;;;4937030;29;20216;-79
2023/06/28 01:23:25;;;;;;;6.97;4.10;;;14.30;99.90;;;;;;4936523;29;20216;-76
2023/06/28 01:25:53;;;;;;;6.50;4.57;;;14.20;99.90;;;;;;4936974;29;20642;-78
2023/06/28 01:28:22;;;;;;;8.27;5.07;;;14.10;99.90;;;;;;4937075;29;20280;-75
2023/06/28 01:30:52;;;;;;;7.37;5.00;;;14.00;99.90;;;;;;4936732;29;20571;-81
2023/06/28 01:33:21;;;;;;;9.57;5.60;;;14.00;99.90;;;;;;4936669;29;20224;-78
2023/06/28 01:35:49;;;;;;;7.20;4.90;;;13.90;99.90;;;;;;4936879;28;20243;-75
2023/06/28 01:38:18;;;;;;;8.93;4.80;;;13.90;99.90;;;;;;4936901;29;20213;-77
2023/06/28 01:40:50;;;;;;;8.00;4.27;;;13.80;99.90;;;;;;4936115;29;20208;-76
2023/06/28 01:43:20;;;;;;;7.73;4.37;;;13.70;99.90;;;;;;4936529;29;20247;-78
2023/06/28 01:45:49;;;;;;;10.23;5.40;;;13.70;99.90;;;;;;4936753;29;20427;-80
2023/06/28 01:48:18;;;;;;;8.63;4.77;;;13.70;99.90;;;;;;4958768;28;20207;-76
2023/06/28 01:50:46;;;;;;;9.63;4.73;;;13.60;99.90;;;;;;4965023;28;20228;-78
2023/06/28 01:53:16;;;;;;;7.07;4.70;;;13.60;99.90;;;;;;4936101;29;20271;-77
2023/06/28 01:55:44;;;;;;;9.17;4.83;;;13.60;99.90;;;;;;4936512;29;20243;-76
2023/06/28 01:58:13;;;;;;;9.43;5.40;;;13.50;99.90;;;;;;4936504;29;20216;-76
2023/06/28 02:00:41;;;;;;;9.97;5.13;;;13.50;99.90;;;;;;4937312;29;20209;-78
2023/06/28 02:03:09;;;;;;;9.07;5.77;;;13.50;99.90;;;;;;4940690;29;20675;-80
2023/06/28 02:05:39;;;;;;;8.77;5.40;;;13.40;99.90;;;;;;4937351;29;20219;-80
2023/06/28 02:08:07;;;;;;;9.33;5.67;;;13.40;99.90;;;;;;4937486;29;20663;-78
2023/06/28 02:10:35;;;;;;;9.83;6.20;;;13.30;99.90;;;;;;4938032;29;20235;-79
2023/06/28 02:13:03;;;;;;;8.83;5.37;;;13.30;99.90;;;;;;4935643;29;20216;-79
2023/06/28 02:15:33;;;;;;;7.17;5.50;;;13.30;99.90;;;;;;4936194;29;20235;-80
2023/06/28 02:18:01;;;;;;;10.33;6.17;;;13.40;99.90;;;;;;4935710;29;20224;-80
2023/06/28 02:20:29;;;;;;;6.97;5.73;;;13.30;99.90;;;;;;4936059;29;20219;-82
2023/06/28 02:22:57;;;;;;;7.70;5.30;;;13.20;99.90;;;;;;4934697;29;20296;-77
2023/06/28 02:25:25;;;;;;;9.37;6.27;;;13.20;99.90;;;;;;4935697;29;20259;-82
2023/06/28 02:27:54;;;;;;;9.80;5.40;;;13.20;99.90;;;;;;4935656;29;20223;-83
2023/06/28 02:30:22;;;;;;;8.03;5.30;;;13.10;99.90;;;;;;4935693;29;20263;-77
2023/06/28 02:32:51;;;;;;;7.57;5.37;;;13.10;99.90;;;;;;4935565;29;20263;-79
2023/06/28 02:35:19;;;;;;;10.27;5.20;;;13.10;99.90;;;;;;4935501;29;20706;-75
2023/06/28 02:37:47;;;;;;;7.00;5.30;;;13.10;99.90;;;;;;4935675;29;20239;-82
2023/06/28 02:40:15;;;;;;;8.30;5.90;;;13.10;99.90;;;;;;4935477;29;20613;-80
2023/06/28 02:42:43;;;;;;;7.00;5.50;;;13.10;99.90;;;;;;4935312;29;20212;-76
2023/06/28 02:45:12;;;;;;;7.33;5.80;;;13.10;99.90;;;;;;4935300;29;20675;-76
2023/06/28 02:47:40;;;;;;;7.10;6.00;;;13.10;99.90;;;;;;4970147;28;20266;-75
2023/06/28 02:50:10;;;;;;;7.17;5.87;;;13.10;99.90;;;;;;4973910;28;20235;-75
2023/06/28 02:52:39;;;;;;;8.57;6.17;;;13.00;99.90;;;;;;4957946;28;20216;-75
2023/06/28 02:55:07;;;;;;;8.07;6.33;;;13.00;99.90;;;;;;4935089;29;20315;-75
2023/06/28 02:57:36;;;;;;;8.57;7.17;;;13.10;99.90;;;;;;4934968;29;20208;-77
2023/06/28 03:00:06;;;;;;;9.40;6.83;;;13.00;99.90;;;;;;4935411;29;20212;-75
2023/06/28 03:02:34;;;;;;;8.37;6.30;;;13.00;99.90;;;;;;4934972;29;20213;-75
2023/06/28 03:05:03;;;;;;;9.73;6.47;;;13.10;99.90;;;;;;4935440;29;20227;-76
2023/06/28 03:07:33;;;;;;;8.03;5.23;;;13.00;99.90;;;;;;4934980;29;20247;-76
2023/06/28 03:10:01;;;;;;;6.87;5.27;;;13.00;99.90;;;;;;4935254;29;20232;-75
2023/06/28 03:12:29;;;;;;;10.03;5.23;;;13.00;99.90;;;;;;4935204;29;20275;-77
2023/06/28 03:14:57;;;;;;;7.50;5.23;;;12.90;99.90;;;;;;4935179;29;20307;-76
2023/06/28 03:17:27;;;;;;;6.17;4.93;;;12.80;99.90;;;;;;4935606;29;20235;-75
2023/06/28 03:19:55;;;;;;;5.20;4.50;;;12.80;99.90;;;;;;4934929;29;20219;-75
2023/06/28 03:22:23;;;;;;;5.03;4.30;;;12.70;99.90;;;;;;4934442;29;20205;-77
2023/06/28 03:24:53;;;;;;;7.27;4.70;;;12.70;99.90;;;;;;4935020;29;20283;-76
2023/06/28 03:27:21;;;;;;;7.00;4.83;;;12.70;99.90;;;;;;4935119;29;20602;-73
2023/06/28 03:29:49;;;;;;;6.00;4.60;;;12.70;99.90;;;;;;4934429;29;20232;-74
2023/06/28 03:32:17;;;;;;;7.23;4.70;;;12.70;99.90;;;;;;4934670;29;20625;-75
2023/06/28 03:34:45;;;;;;;5.60;4.60;;;12.70;99.90;;;;;;4934509;29;20220;-74
2023/06/28 03:37:16;;;;;;;6.37;4.77;;;12.70;99.90;;;;;;4934415;29;20208;-74
2023/06/28 03:39:44;;;;;;;4.93;4.20;;;12.70;99.90;;;;;;4934748;29;20216;-76
2023/06/28 03:42:13;;;;;;;6.53;4.10;;;12.70;99.90;;;;;;4934593;29;20216;-75
2023/06/28 03:44:41;;;;;;;6.23;4.90;;;12.60;99.90;;;;;;4944438;28;20301;-76
2023/06/28 03:47:09;;;;;;;5.03;4.20;;;12.70;99.90;;;;;;4942542;28;20224;-79
2023/06/28 03:49:37;;;;;;;6.23;4.30;;;12.60;99.90;;;;;;4934546;29;20267;-78
2023/06/28 03:52:06;;;;;;;4.93;4.43;;;12.60;99.90;;;;;;4934598;29;20219;-78
2023/06/28 03:54:34;;;;;;;6.30;4.37;;;12.60;99.90;;;;;;4934346;29;20212;-74
2023/06/28 03:57:04;;;;;;;5.60;5.00;;;12.60;99.90;;;;;;4934853;29;20227;-74
2023/06/28 03:59:33;;;;;;;7.57;5.20;;;12.60;99.90;;;;;;4934434;29;20748;-74
2023/06/28 04:02:01;;;;;;;7.03;5.53;;;12.60;99.90;;;;;;4934371;29;20209;-74
2023/06/28 04:04:29;;;;;;;6.80;5.67;;;12.60;99.90;;;;;;4934775;29;20215;-76
2023/06/28 04:07:00;;;;;;;6.90;6.20;;;12.60;99.90;;;;;;4934804;29;20240;-74
2023/06/28 04:09:28;;;;;;;7.73;6.70;;;12.60;99.90;;;;;;4934768;29;20215;-74
2023/06/28 04:11:56;;;;;;;8.83;6.87;;;12.60;99.90;;;;;;4934192;29;20645;-74
2023/06/28 04:14:25;;;;;;;9.93;7.13;;;12.70;99.90;;;;;;4933951;29;20273;-75
2023/06/28 04:16:55;;;;;;;8.20;7.40;;;12.80;99.90;;;;;;4934550;29;20219;-72
2023/06/28 04:19:23;;;;;;;10.67;8.20;;;12.80;99.90;;;;;;4934273;29;20247;-75
2023/06/28 04:21:51;;;;;;;13.20;8.57;;;12.80;99.90;;;;;;4933962;29;20224;-74
2023/06/28 04:24:19;;;;;;;9.53;8.63;;;12.80;99.90;;;;;;4934444;29;20239;-75
2023/06/28 04:26:47;;;;;;;10.20;8.27;;;12.80;99.90;;;;;;4934505;29;20326;-74
2023/06/28 04:29:15;;;;;;;14.30;9.00;;;12.90;99.90;;;;;;4934628;29;20217;-77
2023/06/28 04:31:43;;;;;;;9.53;8.53;;;12.90;99.90;;;;;;4934555;29;20329;-76
2023/06/28 04:34:13;;;;;;;12.10;9.27;;;13.00;99.90;;;;;;4934501;29;20216;-75
2023/06/28 04:36:41;;;;;;;11.00;9.00;;;13.00;99.90;;;;;;4933955;29;20236;-76
2023/06/28 04:39:09;;;;;;;12.37;9.50;;;13.10;99.90;;;;;;4934352;29;20216;-75
2023/06/28 04:41:37;;;;;;;11.40;9.50;;;13.10;99.90;;;;;;4934164;29;20212;-75
2023/06/28 04:44:09;;;;;;;11.50;9.93;;;13.10;99.90;;;;;;4955890;28;20669;-75
2023/06/28 04:46:37;;;;;;;11.67;10.13;;;13.20;99.90;;;;;;4955697;29;20693;-76
2023/06/28 04:49:05;;;;;;;10.00;8.90;;;13.20;99.90;;;;;;4956737;28;20640;-76
2023/06/28 04:51:36;;;;;;;11.97;8.30;;;13.20;99.90;;;;;;4956604;29;20231;-74
2023/06/28 04:54:04;;;;;;;11.20;9.00;;;13.20;99.90;;;;;;4941602;29;20682;-74
2023/06/28 04:56:32;;;;;;;10.73;8.53;;;13.30;99.90;;;;;;4937607;29;20240;-74
2023/06/28 04:59:01;;;;;;;8.70;7.80;;;13.30;99.90;;;;;;4937615;29;20255;-74
2023/06/28 05:01:29;;;;;;;9.17;7.60;;;13.40;99.90;;;;;;4937314;29;20667;-75
2023/06/28 05:03:57;;;;;;;10.03;7.87;;;13.30;99.90;;;;;;4937447;29;20656;-79
2023/06/28 05:06:25;;;;;;;10.70;7.30;;;13.30;99.90;;;;;;4937607;29;20247;-76
2023/06/28 05:08:55;;;;;;;9.40;7.47;;;13.30;99.90;;;;;;4937095;29;20212;-74
2023/06/28 05:11:23;;;;;;;9.53;7.60;;;13.30;99.90;;;;;;4937372;29;20232;-76
2023/06/28 05:13:51;;;;;;;9.13;6.83;;;13.40;99.90;;;;;;4937095;29;20255;-74
2023/06/28 05:16:19;;;;;;;8.20;6.93;;;13.40;99.90;;;;;;4937346;29;20266;-76
2023/06/28 05:18:48;;;;;;;11.27;6.97;;;13.50;99.90;;;;;;4937161;29;20306;-77
2023/06/28 05:21:16;;;;;;;7.83;6.43;;;13.50;99.90;;;;;;4936774;29;20244;-76
2023/06/28 05:23:44;;;;;;;10.33;6.33;;;13.60;99.90;;;;;;4936853;29;20538;-77
2023/06/28 05:26:14;;;;;;;10.97;6.23;;;13.60;99.90;;;;;;4937047;29;20223;-73
2023/06/28 05:28:43;;;;;;;7.73;6.20;;;13.60;99.90;;;;;;4937324;29;20216;-74
2023/06/28 05:31:11;;;;;;;8.63;6.37;;;13.60;99.90;;;;;;4937053;29;20235;-75
2023/06/28 05:33:40;;;;;;;9.13;6.30;;;13.70;99.90;;;;;;4936878;29;20216;-77
2023/06/28 05:36:09;;;;;;;8.57;6.20;;;13.70;99.90;;;;;;4936893;29;20579;-78
2023/06/28 05:38:37;;;;;;;8.33;5.97;;;13.80;99.90;;;;;;4936629;29;20220;-76
2023/06/28 05:41:14;;;;;;;9.23;6.00;;;13.80;99.90;;;;;;4936824;29;20212;-75
2023/06/28 05:43:44;;;;;;;6.93;5.57;;;13.80;99.90;;;;;;4974738;28;20214;-77
2023/06/28 05:46:13;;;;;;;6.67;5.63;;;13.90;99.90;;;;;;4964314;28;20575;-75
2023/06/28 05:48:41;;;;;;;7.63;5.97;;;14.00;99.90;;;;;;4936304;29;20679;-77
2023/06/28 05:51:12;;;;;;;9.80;5.73;;;14.00;99.90;;;;;;4936488;29;20287;-75
2023/06/28 05:53:41;;;;;;;7.20;6.00;;;14.00;99.90;;;;;;4936525;29;20220;-78
2023/06/28 05:56:09;;;;;;;7.97;5.70;;;14.00;99.90;;;;;;4936364;29;20220;-76
2023/06/28 05:58:39;;;;;;;9.37;6.50;;;14.00;99.90;;;;;;4936617;29;20227;-77
2023/06/28 06:01:08;;;;;;;7.50;5.20;;;14.00;99.90;;;;;;4936400;29;20666;-75
2023/06/28 06:03:36;;;;;;;6.10;5.07;;;14.10;99.90;;;;;;4935872;29;20212;-75
2023/06/28 06:06:04;;;;;;;8.53;5.30;;;14.10;99.90;;;;;;4936493;29;20213;-75
2023/06/28 06:08:32;;;;;;;8.07;6.20;;;14.20;99.90;;;;;;4936005;29;20695;-78
2023/06/28 06:11:01;;;;;;;7.93;5.83;;;14.20;99.90;;;;;;4935693;29;20667;-79
2023/06/28 06:13:30;;;;;;;8.07;5.43;;;14.40;99.90;;;;;;4935988;29;20271;-77
2023/06/28 06:15:59;;;;;;;6.90;5.27;;;14.50;99.90;;;;;;4936280;29;20213;-75
2023/06/28 06:18:29;;;;;;;5.77;5.17;;;14.50;99.90;;;;;;4935903;29;20219;-74
2023/06/28 06:20:57;;;;;;;7.03;5.13;;;14.60;99.90;;;;;;4935832;29;20284;-78
2023/06/28 06:23:25;;;;;;;8.37;5.27;;;14.80;99.90;;;;;;4935690;29;20209;-75
2023/06/28 06:25:53;;;;;;;8.27;5.17;;;14.90;99.90;;;;;;4936208;29;20244;-77
2023/06/28 06:28:21;;;;;;;6.53;4.60;;;15.00;99.90;;;;;;4935725;29;20212;-76
2023/06/28 06:30:49;;;;;;;7.97;5.23;;;15.30;99.90;;;;;;4935861;29;20216;-74
2023/06/28 06:33:19;;;;;;;8.60;4.20;;;15.40;99.90;;;;;;4935436;29;20236;-74
2023/06/28 06:35:49;;;;;;;7.07;4.47;;;15.60;99.90;;;;;;4935904;29;20232;-74
2023/06/28 06:38:17;;;;;;;5.87;4.07;;;15.70;99.90;;;;;;4935648;29;20276;-74
2023/06/28 06:40:45;;;;;;;7.90;4.50;;;15.80;99.90;;;;;;4949922;28;20211;-74
2023/06/28 06:43:14;;;;;;;8.07;3.90;;;15.80;99.90;;;;;;4973842;28;20207;-75
2023/06/28 06:45:42;;;;;;;7.70;4.27;;;15.90;99.90;;;;;;4973879;28;20748;-76
2023/06/28 06:48:11;;;;;;;8.07;3.80;;;16.10;99.90;;;;;;4956853;28;20239;-77
2023/06/28 06:50:40;;;;;;;9.20;3.90;;;16.20;99.90;;;;;;4935995;29;20243;-74
2023/06/28 06:53:09;;;;;;;7.07;3.73;;;16.20;99.90;;;;;;4935149;29;20228;-75
2023/06/28 06:55:37;;;;;;;6.33;3.80;;;16.30;99.90;;;;;;4935370;29;20300;-75
2023/06/28 06:58:05;;;;;;;5.73;4.03;;;16.40;99.90;;;;;;4935481;29;20265;-75
2023/06/28 07:00:33;;;;;;;6.20;3.93;;;16.70;99.90;;;;;;4935602;29;20271;-77
2023/06/28 07:03:01;;;;;;;6.23;3.83;;;16.80;99.90;;;;;;4934965;29;20248;-75
2023/06/28 07:05:30;;;;;;;5.30;3.70;;;17.10;99.90;;;;;;4935368;29;20291;-75
2023/06/28 07:08:00;;;;;;;5.87;3.37;;;17.20;99.90;;;;;;4948504;28;20211;-75
2023/06/28 07:10:28;;;;;;;6.10;3.27;;;17.40;99.90;;;;;;4954614;29;20215;-75
2023/06/28 07:12:56;;;;;;;5.13;3.50;;;17.30;99.90;;;;;;4954273;29;20263;-74
2023/06/28 07:15:26;;;;;;;4.13;3.30;;;17.50;99.90;;;;;;4941780;28;20580;-76
2023/06/28 07:17:55;;;;;;;4.50;3.40;;;17.60;99.90;;;;;;4934967;29;20307;-76
2023/06/28 07:20:23;;;;;;;5.33;3.50;;;17.80;99.90;;;;;;4934966;29;20220;-76
2023/06/28 07:22:51;;;;;;;4.93;3.30;;;17.80;99.90;;;;;;4935786;29;20213;-74
2023/06/28 07:25:21;;;;;;;5.67;3.33;;;18.10;99.90;;;;;;4935689;28;20216;-75
2023/06/28 07:27:49;;;;;;;5.23;3.00;;;18.50;99.90;;;;;;4935188;29;20212;-76
2023/06/28 07:30:17;;;;;;;4.20;3.10;;;18.90;99.90;;;;;;4934745;29;20263;-75
2023/06/28 07:32:45;;;;;;;4.67;3.00;;;19.00;99.90;;;;;;4934337;29;20283;-74
2023/06/28 07:35:13;;;;;;;6.10;3.10;;;19.10;99.90;;;;;;4934780;29;20283;-75
2023/06/28 07:37:41;;;;;;;5.17;2.90;;;19.00;99.90;;;;;;4935175;29;20626;-75
2023/06/28 07:40:10;;;;;;;5.40;2.90;;;19.10;99.90;;;;;;4961852;28;20258;-75
2023/06/28 07:42:41;;;;;;;5.93;2.80;;;19.10;99.90;;;;;;4964912;28;20208;-74
2023/06/28 07:45:10;;;;;;;5.33;2.90;;;19.10;99.90;;;;;;4934925;29;20212;-75
2023/06/28 07:47:41;;;;;;;5.47;2.93;;;19.10;99.90;;;;;;4934853;29;20207;-76
2023/06/28 07:50:10;;;;;;;4.70;3.20;;;19.10;99.90;;;;;;4934965;29;20222;-74
2023/06/28 07:52:38;;;;;;;4.17;2.73;;;19.20;99.90;;;;;;4934745;29;20236;-75
2023/06/28 07:55:08;;;;;;;5.03;2.90;;;19.80;99.90;;;;;;4934666;29;20354;-75
2023/06/28 07:57:36;;;;;;;4.00;2.90;;;20.20;99.90;;;;;;4934512;29;20212;-75
2023/06/28 08:00:09;;;;;;;5.43;2.87;;;20.90;99.90;;;;;;4934390;29;20216;-75
2023/06/28 08:02:37;;;;;;;4.57;2.90;;;21.60;99.90;;;;;;4934459;29;20211;-75
2023/06/28 08:05:07;;;;;;;6.60;3.10;;;21.70;99.90;;;;;;4934773;29;20280;-76
2023/06/28 08:07:35;;;;;;;5.33;2.67;;;21.60;99.90;;;;;;4934506;29;20208;-75
2023/06/28 08:10:04;;;;;;;5.73;2.70;;;21.70;99.90;;;;;;4934808;29;20220;-76
2023/06/28 08:12:32;;;;;;;4.43;2.80;;;21.90;99.90;;;;;;4934032;29;20236;-76
2023/06/28 08:15:00;;;;;;;3.83;2.70;;;21.30;99.90;;;;;;4934546;29;20213;-75
2023/06/28 08:17:30;;;;;;;3.40;2.70;;;21.80;99.90;;;;;;4934313;29;20235;-75
2023/06/28 08:19:58;;;;;;;4.57;2.80;;;22.20;99.90;;;;;;4936584;29;20217;-76
2023/06/28 08:22:26;;;;;;;4.63;2.60;;;22.30;99.90;;;;;;4938039;29;20629;-74
2023/06/28 08:24:54;;;;;;;4.43;3.10;;;22.00;99.90;;;;;;4937966;29;20291;-76
2023/06/28 08:27:22;;;;;;;5.10;2.87;;;22.00;99.50;;;;;;4937956;29;20216;-75
2023/06/28 08:29:51;;;;;;;3.57;2.77;;;22.30;99.90;;;;;;4937785;29;20212;-74
2023/06/28 08:32:19;;;;;;;4.23;2.80;;;22.40;97.20;;;;;;4937353;29;20742;-75
2023/06/28 08:34:48;;;;;;;6.17;2.90;;;22.70;99.90;;;;;;4937741;29;20216;-75
2023/06/28 08:37:18;;;;;;;4.47;2.77;;;22.90;99.40;;;;;;4941261;28;20267;-75
2023/06/28 08:39:46;;;;;;;4.03;2.83;;;23.50;98.80;;;;;;4975997;28;20705;-76
2023/06/28 08:42:17;;;;;;;5.57;3.00;;;23.50;96.60;;;;;;4970771;28;20222;-76
2023/06/28 08:44:48;;;;;;;5.20;3.00;;;24.00;97.20;;;;;;4937792;29;20260;-76
2023/06/28 08:47:17;;;;;;;9.40;3.03;;;24.40;94.20;;;;;;4937779;29;20260;-76
2023/06/28 08:49:45;;;;;;;4.85;3.10;;;24.50;94.20;;;;;;4937672;29;20220;-78
2023/06/28 08:52:16;;;;;;;5.70;2.60;;;25.30;92.60;;;;;;4937120;29;20270;-78
2023/06/28 08:54:45;;;;;;;6.05;2.90;;;25.30;92.40;;;;;;4937288;29;20236;-76
2023/06/28 08:57:16;;;;;;;5.13;2.60;;;25.20;83.90;;;;;;4937157;29;20216;-77
2023/06/28 08:59:44;;;;;;;4.20;2.50;;;24.80;84.60;;;;;;4937383;29;20208;-76
2023/06/28 09:02:17;;;;;;;3.13;2.20;;;24.80;85.10;;;;;;4936890;29;20733;-76
2023/06/28 09:04:46;;;;;;;4.30;2.17;;;25.60;84.50;;;;;;4937309;29;20219;-77
2023/06/28 09:07:16;;;;;;;3.78;2.40;;;25.70;80.50;;;;;;4937450;29;20271;-76
2023/06/28 09:09:48;;;;;;;4.72;2.40;;;25.30;77.60;;;;;;4937376;29;20211;-76
2023/06/28 09:12:17;;;;;;;2.67;2.22;;;25.90;77.80;;;;;;4936966;29;20212;-76
2023/06/28 09:14:45;;;;;;;3.47;2.63;;;25.20;76.80;;;;;;4937011;29;20259;-76
2023/06/28 09:17:13;;;;;;;4.03;2.17;;;25.40;76.70;;;;;;4937351;29;20248;-76
2023/06/28 09:19:42;;;;;;;3.38;2.20;;;25.30;76.80;;;;;;4936888;29;20259;-75
2023/06/28 09:22:10;;;;;;;4.97;2.60;;;25.20;77.60;;;;;;4936485;29;20871;-76
2023/06/28 09:24:40;;;;;;;3.08;2.17;;;24.90;75.40;;;;;;4937128;29;20448;-76
2023/06/28 09:27:08;;;;;;;2.58;2.25;;;24.80;83.10;;;;;;4936795;29;20208;-76
2023/06/28 09:29:36;;;;;;;5.85;2.35;;;24.60;74.80;;;;;;4936623;29;20299;-77
2023/06/28 09:32:06;;;;;;;4.10;2.17;;;25.30;77.30;;;;;;4935927;29;20238;-77
2023/06/28 09:34:36;;;;;;;4.20;2.30;;;25.50;72.10;;;;;;4936480;29;20232;-76
2023/06/28 09:37:06;;;;;;;3.75;2.33;;;25.50;69.90;;;;;;4959286;28;20234;-76
2023/06/28 09:39:37;;;;;;;2.88;1.85;;;25.70;69.70;;;;;;4954992;28;20236;-77
2023/06/28 09:42:07;;;;;;;3.03;2.05;;;25.70;69.00;;;;;;4936689;29;20216;-77
2023/06/28 09:44:35;;;;;;;3.13;2.13;;;26.60;69.50;;;;;;4936419;29;20216;-78
2023/06/28 09:47:05;;;;;;;4.18;2.00;;;27.20;64.90;;;;;;4936367;29;20216;-77
2023/06/28 09:49:33;;;;;;;4.03;2.28;;;28.00;62.00;;;;;;4936393;29;20294;-76
2023/06/28 09:52:06;;;;;;;6.10;2.55;;;28.00;57.10;;;;;;4936329;29;20212;-77
2023/06/28 09:54:40;;;;;;;5.25;2.35;;;28.00;56.30;;;;;;4936324;29;20223;-76
2023/06/28 09:57:10;;;;;;;2.95;2.20;;;27.90;59.40;;;;;;4936247;29;20213;-77
2023/06/28 09:59:40;;;;;;;3.80;2.60;;;27.50;59.10;;;;;;4936412;29;20240;-77
2023/06/28 10:02:10;;;;;;;4.90;2.20;;;27.70;56.30;;;;;;4935770;29;20231;-77
2023/06/28 10:04:39;;;;;;;4.78;2.20;;;27.00;58.10;;;;;;4935953;29;20688;-78
2023/06/28 10:07:10;;;;;;;5.07;2.30;;;27.80;56.40;;;;;;4935971;29;20212;-77
2023/06/28 10:09:39;;;;;;;6.22;2.47;;;27.40;56.30;;;;;;4936439;29;20682;-77
2023/06/28 10:12:13;;;;;;;4.75;2.47;;;27.00;53.80;;;;;;4935818;29;20208;-76
2023/06/28 10:14:49;;;;;;;3.92;2.40;;;26.30;58.80;;;;;;4935969;29;20263;-75
2023/06/28 10:17:18;;;;;;;3.65;2.10;;;26.00;58.80;;;;;;4947762;28;20206;-76
2023/06/28 10:19:47;;;;;;;3.45;2.67;;;26.10;63.10;;;;;;4975696;28;20210;-75
2023/06/28 10:22:15;;;;;;;4.25;2.50;;;25.80;63.00;;;;;;4975019;28;20265;-76
2023/06/28 10:24:45;;;;;;;3.65;2.72;;;26.80;62.80;;;;;;4946217;28;20629;-77
2023/06/28 10:27:15;;;;;;;4.35;2.97;;;26.30;63.20;;;;;;4935593;29;20738;-75
2023/06/28 10:29:44;;;;;;;6.33;3.00;;;24.30;65.10;;;;;;4936524;29;20216;-75
2023/06/28 10:32:12;;;;;;;3.13;2.30;;;23.70;67.90;;;;;;4935440;29;20263;-75
2023/06/28 10:34:41;;;;;;;2.67;2.20;;;24.10;73.50;;;;;;4942026;28;20199;-74
2023/06/28 10:37:10;;;;;;;4.07;2.23;;;24.40;65.60;;;;;;4974816;28;20717;-76
2023/06/28 10:39:39;;;;;;;4.57;2.30;;;24.80;67.00;;;;;;4975262;28;20211;-77
2023/06/28 10:42:08;;;;;;;6.13;2.60;;;25.20;67.40;;;;;;4973875;28;20257;-76
2023/06/28 10:44:51;;;;;;;4.90;2.63;;;24.80;64.20;;;;;;4935288;29;20278;-77
2023/06/28 10:47:19;;;;;;;3.77;2.37;;;24.20;65.20;;;;;;4935799;29;20490;-75
2023/06/28 10:50:10;;;;;;;4.87;2.50;;;24.50;69.00;;;;;;4935999;29;20220;-75
2023/06/28 10:52:46;;;;;;;4.88;2.78;;;25.50;66.60;;;;;;4934916;29;20738;-77
2023/06/28 10:55:18;;;;;;;3.70;2.17;;;25.30;65.90;;;;;;4935500;29;20639;-76
2023/06/28 10:58:04;;;;;;;4.43;2.80;;;24.70;67.40;;;;;;4935326;29;20665;-75
2023/06/28 11:00:44;;;;;;;3.43;2.40;;;24.30;68.80;;;;;;4935476;29;20223;-74
2023/06/28 11:03:13;;;;;;;5.73;2.47;;;24.30;71.50;;;;;;4935232;29;20294;-75
2023/06/28 11:05:53;;;;;;;5.47;2.40;;;24.70;68.90;;;;;;4936241;29;20231;-74
2023/06/28 11:08:22;;;;;;;5.00;2.60;;;24.60;65.60;;;;;;4938083;29;20682;-74
2023/06/28 11:10:55;;;;;;;4.83;2.37;;;25.20;60.50;;;;;;4938679;29;20216;-74
2023/06/28 11:13:33;;;;;;;5.87;2.77;;;24.70;61.30;;;;;;4939135;29;20197;-75
2023/06/28 11:16:11;;;;;;;4.63;2.70;;;24.00;59.40;;;;;;4937978;29;20558;-73
2023/06/28 11:18:39;;;;;;;4.33;2.70;;;23.80;67.50;;;;;;4938822;29;20212;-75
2023/06/28 11:21:15;;;;;;;4.63;2.80;;;24.00;68.50;;;;;;4935720;29;20209;-73
2023/06/28 11:23:44;;;;;;;5.17;3.27;;;24.50;67.60;;;;;;4935900;29;20196;-77
2023/06/28 11:26:14;;;;;;;5.60;2.80;;;24.00;61.90;;;;;;4935215;29;20361;-74
2023/06/28 11:28:50;;;;;;;5.37;2.70;;;24.60;69.50;;;;;;4935156;29;20211;-75
2023/06/28 11:31:22;;;;;;;5.23;2.63;;;25.80;67.70;;;;;;4935008;29;20235;-75
2023/06/28 11:33:52;;;;;;;4.33;2.70;;;26.00;58.30;;;;;;4950502;28;20294;-76
2023/06/28 11:36:24;;;;;;;5.67;2.40;;;25.70;62.60;;;;;;4973428;28;20323;-75
2023/06/28 11:38:52;;;;;;;6.13;2.63;;;26.30;57.90;;;;;;4944326;28;20659;-75
2023/06/28 11:41:21;;;;;;;6.87;2.30;;;26.40;53.80;;;;;;4935524;29;20212;-73
2023/06/28 11:43:49;;;;;;;4.90;2.67;;;26.10;57.40;;;;;;4935044;28;20294;-74
2023/06/28 11:46:21;;;;;;;5.27;2.70;;;26.20;52.80;;;;;;4934860;29;20232;-76
2023/06/28 11:48:51;;;;;;;4.63;2.50;;;25.70;51.60;;;;;;4935554;29;20212;-73
2023/06/28 11:51:23;;;;;;;6.47;2.67;;;25.80;52.10;;;;;;4934795;29;20711;-73
2023/06/28 11:53:55;;;;;;;4.50;2.33;;;25.70;55.80;;;;;;4934726;29;20595;-73
2023/06/28 11:56:33;;;;;;;4.63;2.20;;;24.80;58.30;;;;;;4939161;29;20204;-73
2023/06/28 11:59:16;;;;;;;4.07;2.20;;;25.10;58.90;;;;;;4938464;29;20697;-74
2023/06/28 12:01:46;;;;;;;4.93;2.23;;;24.90;54.80;;;;;;4938978;29;20192;-73
2023/06/28 12:04:19;;;;;;;4.63;2.50;;;24.40;57.50;;;;;;4938265;29;20213;-75
2023/06/28 12:06:51;;;;;;;3.93;2.63;;;24.00;62.40;;;;;;4938812;29;20200;-74
2023/06/28 12:09:20;;;;;;;5.27;2.60;;;24.00;63.70;;;;;;4938997;29;20282;-77
2023/06/28 12:11:54;;;;;;;5.43;2.90;;;24.30;59.80;;;;;;4938654;29;20686;-76
2023/06/28 12:14:22;;;;;;;5.27;2.70;;;23.40;56.10;;;;;;4938418;29;20216;-73
2023/06/28 12:16:52;;;;;;;3.77;2.13;;;23.20;60.00;;;;;;4938279;29;20683;-73
2023/06/28 12:19:26;;;;;;;4.43;2.17;;;23.30;64.80;;;;;;4938675;29;20216;-74
2023/06/28 12:21:56;;;;;;;3.23;1.93;;;24.00;68.50;;;;;;4937648;29;20213;-76
2023/06/28 12:24:25;;;;;;;4.00;2.40;;;24.90;63.00;;;;;;4938304;29;20219;-75
2023/06/28 12:26:55;;;;;;;7.10;2.30;;;25.70;57.80;;;;;;4937900;29;20307;-75
2023/06/28 12:29:24;;;;;;;4.30;2.30;;;26.00;56.70;;;;;;4938127;29;20267;-75
2023/06/28 12:31:58;;;;;;;2.97;2.00;;;26.30;55.20;;;;;;4944659;28;20215;-76
2023/06/28 12:34:27;;;;;;;5.80;2.50;;;26.30;53.70;;;;;;4976565;28;20274;-75
2023/06/28 12:36:57;;;;;;;5.80;2.17;;;26.20;55.30;;;;;;4976718;28;20242;-74
2023/06/28 12:39:26;;;;;;;5.03;2.13;;;26.30;56.00;;;;;;4938268;28;20267;-75
2023/06/28 12:42:02;;;;;;;5.93;2.33;;;26.50;53.70;;;;;;4937832;29;20211;-74
2023/06/28 12:44:31;;;;;;;3.93;2.20;;;26.70;56.50;;;;;;4937844;29;20246;-75
2023/06/28 12:47:01;;;;;;;5.20;2.63;;;26.80;54.50;;;;;;4937661;29;20722;-75
2023/06/28 12:49:39;;;;;;;4.23;2.30;;;25.80;51.30;;;;;;4937645;29;20690;-74
2023/06/28 12:52:08;;;;;;;5.57;2.03;;;25.20;53.00;;;;;;4937390;29;20243;-76
2023/06/28 12:54:36;;;;;;;5.17;2.30;;;24.70;54.80;;;;;;4937412;29;20220;-75
2023/06/28 12:57:05;;;;;;;4.07;2.10;;;24.20;55.50;;;;;;4937552;29;20626;-76